createdAt,value
2022-09-16T00:00:04.726Z,3.73
2022-09-16T00:01:19.081Z,3.43
2022-09-16T00:02:20.895Z,3.50
2022-09-16T00:03:23.036Z,3.80
2022-09-16T00:04:24.831Z,3.40
2022-09-16T00:05:26.706Z,3.77
2022-09-16T00:06:30.246Z,3.70
2022-09-16T00:07:31.984Z,3.90
2022-09-16T00:08:33.971Z,3.80
2022-09-16T00:09:38.282Z,3.50
2022-09-16T00:10:40.910Z,3.60
2022-09-16T00:11:42.626Z,3.50
2022-09-16T00:12:44.358Z,3.90
2022-09-16T00:13:47.207Z,3.47
2022-09-16T00:14:48.970Z,3.30
2022-09-16T00:15:51.227Z,3.50
2022-09-16T00:16:53.187Z,3.73
2022-09-16T00:17:55.008Z,3.50
2022-09-16T00:19:00.670Z,3.53
2022-09-16T00:20:02.731Z,4.10
2022-09-16T00:21:09.817Z,3.87
2022-09-16T00:22:11.927Z,3.87
2022-09-16T00:23:13.664Z,3.77
2022-09-16T00:24:16.632Z,3.77
2022-09-16T00:25:18.378Z,3.53
2022-09-16T00:26:20.273Z,3.83
2022-09-16T00:27:22.114Z,3.67
2022-09-16T00:28:24.697Z,3.60
2022-09-16T00:29:26.546Z,3.50
2022-09-16T00:30:28.320Z,3.73
2022-09-16T00:31:30.108Z,3.73
2022-09-16T00:32:31.941Z,3.70
2022-09-16T00:33:33.711Z,3.60
2022-09-16T00:34:35.508Z,3.90
2022-09-16T00:35:37.266Z,3.83
2022-09-16T00:36:39.022Z,3.53
2022-09-16T00:37:40.770Z,3.60
2022-09-16T00:38:43.926Z,3.60
2022-09-16T00:39:49.459Z,3.83
2022-09-16T00:40:51.242Z,3.60
2022-09-16T00:41:52.958Z,3.33
2022-09-16T00:42:54.693Z,3.73
2022-09-16T00:44:00.707Z,3.83
2022-09-16T00:45:27.190Z,3.67
2022-09-16T00:46:47.983Z,3.60
2022-09-16T00:48:12.828Z,3.60
2022-09-16T00:49:25.424Z,3.43
2022-09-16T00:50:54.093Z,3.80
2022-09-16T00:52:03.357Z,3.80
2022-09-16T00:53:12.077Z,3.80
2022-09-16T00:54:18.012Z,3.87
2022-09-16T00:55:30.812Z,3.93
2022-09-16T00:56:40.974Z,3.83
2022-09-16T00:57:45.127Z,4.00
2022-09-16T00:58:55.311Z,3.80
2022-09-16T00:59:59.597Z,3.50
2022-09-16T01:01:05.082Z,3.93
2022-09-16T01:02:13.489Z,4.30
2022-09-16T01:03:15.297Z,3.90
2022-09-16T01:04:27.161Z,3.67
2022-09-16T01:05:29.058Z,3.37
2022-09-16T01:06:34.022Z,4.00
2022-09-16T01:07:54.522Z,3.50
2022-09-16T01:08:57.815Z,3.60
2022-09-16T01:09:59.769Z,3.70
2022-09-16T01:11:01.666Z,3.83
2022-09-16T01:12:03.484Z,3.40
2022-09-16T01:13:09.738Z,3.40
2022-09-16T01:14:32.007Z,3.53
2022-09-16T01:16:17.407Z,3.77
2022-09-16T01:18:12.328Z,3.27
2022-09-16T01:19:22.711Z,3.50
2022-09-16T01:20:55.159Z,3.13
2022-09-16T01:22:30.018Z,3.20
2022-09-16T01:24:07.654Z,3.30
2022-09-16T01:26:03.695Z,3.20
2022-09-16T01:27:30.095Z,3.47
2022-09-16T01:28:40.737Z,3.53
2022-09-16T01:30:19.769Z,3.43
2022-09-16T01:31:55.071Z,3.33
2022-09-16T01:33:08.571Z,3.17
2022-09-16T01:34:31.342Z,3.33
2022-09-16T01:36:09.669Z,3.30
2022-09-16T01:37:33.524Z,3.10
2022-09-16T01:38:52.610Z,3.47
2022-09-16T01:40:23.652Z,3.70
2022-09-16T01:41:39.599Z,3.27
2022-09-16T01:42:58.995Z,3.07
2022-09-16T01:44:53.097Z,3.50
2022-09-16T01:46:27.863Z,3.20
2022-09-16T01:47:52.355Z,3.40
2022-09-16T01:49:13.957Z,3.20
2022-09-16T01:50:53.668Z,3.60
2022-09-16T01:52:32.448Z,3.20
2022-09-16T01:53:54.930Z,3.17
2022-09-16T01:55:06.690Z,3.10
2022-09-16T01:56:29.779Z,3.13
2022-09-16T01:57:46.059Z,3.23
2022-09-16T01:59:07.512Z,3.00
2022-09-16T02:00:15.970Z,2.90
2022-09-16T02:01:39.582Z,3.33
2022-09-16T02:03:00.273Z,3.40
2022-09-16T02:04:17.644Z,2.70
2022-09-16T02:05:32.311Z,3.03
2022-09-16T02:06:38.474Z,3.00
2022-09-16T02:07:50.130Z,2.87
2022-09-16T02:09:27.229Z,3.00
2022-09-16T02:10:38.938Z,2.57
2022-09-16T02:11:43.430Z,3.00
2022-09-16T02:12:49.737Z,2.87
2022-09-16T02:14:20.825Z,3.13
2022-09-16T02:15:26.353Z,3.20
2022-09-16T02:16:38.992Z,3.17
2022-09-16T02:17:48.565Z,2.87
2022-09-16T02:18:57.537Z,3.00
2022-09-16T02:20:12.438Z,3.10
2022-09-16T02:21:16.636Z,2.87
2022-09-16T02:22:30.105Z,2.53
2022-09-16T02:23:42.052Z,3.00
2022-09-16T02:24:48.082Z,2.57
2022-09-16T02:25:52.393Z,2.80
2022-09-16T02:27:02.863Z,2.93
2022-09-16T02:28:13.065Z,2.60
2022-09-16T02:29:22.140Z,2.47
2022-09-16T02:30:23.972Z,2.73
2022-09-16T02:31:36.727Z,2.70
2022-09-16T02:32:48.718Z,2.97
2022-09-16T02:34:07.588Z,2.90
2022-09-16T02:35:15.046Z,3.00
2022-09-16T02:36:22.912Z,2.90
2022-09-16T02:37:42.685Z,2.80
2022-09-16T02:38:52.589Z,2.80
2022-09-16T02:40:02.423Z,3.07
2022-09-16T02:41:04.733Z,3.00
2022-09-16T02:42:07.878Z,2.77
2022-09-16T02:43:09.613Z,3.17
2022-09-16T02:44:12.176Z,3.10
2022-09-16T02:45:14.228Z,3.00
2022-09-16T02:46:21.442Z,2.87
2022-09-16T02:47:42.965Z,2.80
2022-09-16T02:49:11.647Z,3.00
2022-09-16T02:50:29.747Z,2.50
2022-09-16T02:51:55.367Z,2.73
2022-09-16T02:53:06.782Z,2.77
2022-09-16T02:54:47.934Z,2.93
2022-09-16T02:55:53.168Z,2.60
2022-09-16T02:56:57.210Z,2.83
2022-09-16T02:57:59.051Z,2.40
2022-09-16T02:59:02.318Z,2.50
2022-09-16T03:00:06.382Z,2.87
2022-09-16T03:01:13.617Z,2.70
2022-09-16T03:02:15.450Z,2.70
2022-09-16T03:03:18.497Z,2.33
2022-09-16T03:04:21.365Z,2.40
2022-09-16T03:05:31.095Z,2.30
2022-09-16T03:06:36.037Z,2.53
2022-09-16T03:07:41.217Z,2.60
2022-09-16T03:08:45.186Z,2.50
2022-09-16T03:09:49.943Z,2.67
2022-09-16T03:10:54.496Z,2.70
2022-09-16T03:12:30.792Z,2.67
2022-09-16T03:13:55.075Z,2.57
2022-09-16T03:15:41.152Z,2.40
2022-09-16T03:17:00.792Z,2.70
2022-09-16T03:18:30.416Z,2.60
2022-09-16T03:20:03.362Z,2.73
2022-09-16T03:21:21.464Z,2.60
2022-09-16T03:22:49.195Z,2.80
2022-09-16T03:24:12.482Z,2.80
2022-09-16T03:25:32.579Z,3.10
2022-09-16T03:26:53.069Z,3.10
2022-09-16T03:28:09.886Z,2.70
2022-09-16T03:29:46.744Z,2.60
2022-09-16T03:31:17.442Z,3.03
2022-09-16T03:32:32.989Z,3.40
2022-09-16T03:33:55.502Z,3.10
2022-09-16T03:35:09.601Z,2.70
2022-09-16T03:36:19.392Z,3.33
2022-09-16T03:37:24.827Z,2.77
2022-09-16T03:38:28.454Z,3.20
2022-09-16T03:39:32.016Z,2.80
2022-09-16T03:40:35.504Z,2.90
2022-09-16T03:41:37.905Z,2.67
2022-09-16T03:42:42.626Z,2.93
2022-09-16T03:44:03.547Z,2.80
2022-09-16T03:45:07.719Z,3.10
2022-09-16T03:46:15.035Z,2.80
2022-09-16T03:47:18.147Z,2.93
2022-09-16T03:48:19.861Z,3.20
2022-09-16T03:49:21.589Z,3.07
2022-09-16T03:50:23.472Z,2.70
2022-09-16T03:51:26.557Z,2.93
2022-09-16T03:52:28.251Z,2.97
2022-09-16T03:53:30.941Z,2.87
2022-09-16T03:54:33.261Z,2.70
2022-09-16T03:55:35.295Z,3.20
2022-09-16T03:56:37.019Z,3.17
2022-09-16T03:57:39.778Z,3.10
2022-09-16T03:58:41.528Z,2.90
2022-09-16T03:59:43.223Z,3.23
2022-09-16T04:00:50.718Z,3.30
2022-09-16T04:01:52.609Z,2.87
2022-09-16T04:02:54.490Z,2.90
2022-09-16T04:03:56.672Z,2.97
2022-09-16T04:04:58.466Z,3.07
2022-09-16T04:06:00.174Z,2.90
2022-09-16T04:07:02.158Z,2.97
2022-09-16T04:08:03.871Z,2.77
2022-09-16T04:09:08.035Z,2.97
2022-09-16T04:10:12.182Z,2.83
2022-09-16T04:11:13.895Z,2.90
2022-09-16T04:12:15.865Z,2.63
2022-09-16T04:13:17.595Z,2.80
2022-09-16T04:14:20.091Z,3.03
2022-09-16T04:15:22.177Z,2.80
2022-09-16T04:16:23.993Z,3.13
2022-09-16T04:17:25.852Z,3.00
2022-09-16T04:18:28.121Z,3.03
2022-09-16T04:19:29.841Z,3.20
2022-09-16T04:20:33.363Z,2.93
2022-09-16T04:21:35.437Z,3.10
2022-09-16T04:22:37.135Z,3.17
2022-09-16T04:23:38.912Z,2.57
2022-09-16T04:24:41.023Z,2.80
2022-09-16T04:25:42.745Z,3.80
2022-09-16T04:26:45.264Z,3.00
2022-09-16T04:27:46.976Z,3.00
2022-09-16T04:28:48.814Z,3.10
2022-09-16T04:29:50.550Z,2.90
2022-09-16T04:30:52.479Z,3.07
2022-09-16T04:31:55.245Z,2.80
2022-09-16T04:32:57.227Z,3.00
2022-09-16T04:34:01.499Z,2.97
2022-09-16T04:35:03.417Z,3.00
2022-09-16T04:36:13.025Z,3.10
2022-09-16T04:37:14.776Z,3.20
2022-09-16T04:38:16.531Z,2.90
2022-09-16T04:39:18.329Z,2.83
2022-09-16T04:40:20.431Z,2.87
2022-09-16T04:41:26.781Z,2.83
2022-09-16T04:42:28.595Z,2.80
2022-09-16T04:43:30.384Z,2.60
2022-09-16T04:44:32.137Z,2.90
2022-09-16T04:45:33.854Z,2.67
2022-09-16T04:46:35.648Z,2.80
2022-09-16T04:47:37.429Z,2.70
2022-09-16T04:48:39.695Z,2.90
2022-09-16T04:49:41.439Z,2.70
2022-09-16T04:50:43.255Z,2.73
2022-09-16T04:51:45.077Z,3.00
2022-09-16T04:52:46.771Z,2.97
2022-09-16T04:53:49.845Z,2.77
2022-09-16T04:54:51.564Z,2.80
2022-09-16T04:55:53.276Z,2.93
2022-09-16T04:56:55.061Z,2.83
2022-09-16T04:58:00.917Z,3.17
2022-09-16T04:59:05.145Z,3.10
2022-09-16T05:00:08.032Z,3.00
2022-09-16T05:01:13.210Z,3.17
2022-09-16T05:02:14.998Z,2.70
2022-09-16T05:03:16.786Z,2.80
2022-09-16T05:04:18.612Z,2.60
2022-09-16T05:05:21.312Z,2.80
2022-09-16T05:06:29.295Z,2.90
2022-09-16T05:07:31.038Z,2.80
2022-09-16T05:08:35.138Z,3.00
2022-09-16T05:09:37.524Z,2.70
2022-09-16T05:10:39.223Z,2.40
2022-09-16T05:11:42.144Z,2.60
2022-09-16T05:12:46.741Z,2.80
2022-09-16T05:13:51.181Z,3.40
2022-09-16T05:14:52.914Z,2.97
2022-09-16T05:15:54.656Z,3.43
2022-09-16T05:16:57.252Z,3.90
2022-09-16T05:17:58.962Z,4.00
2022-09-16T05:19:04.694Z,3.87
2022-09-16T05:20:07.136Z,3.23
2022-09-16T05:21:13.227Z,3.37
2022-09-16T05:22:14.939Z,3.00
2022-09-16T05:23:16.719Z,2.97
2022-09-16T05:24:18.465Z,3.07
2022-09-16T05:25:20.185Z,2.80
2022-09-16T05:26:25.980Z,3.40
2022-09-16T05:27:31.595Z,2.90
2022-09-16T05:28:34.778Z,3.40
2022-09-16T05:29:36.485Z,3.00
2022-09-16T05:30:38.285Z,2.83
2022-09-16T05:31:43.396Z,2.83
2022-09-16T05:32:45.097Z,2.97
2022-09-16T05:33:57.914Z,2.83
2022-09-16T05:34:59.711Z,2.70
2022-09-16T05:36:11.395Z,2.80
2022-09-16T05:37:13.129Z,3.20
2022-09-16T05:38:15.771Z,2.73
2022-09-16T05:39:26.216Z,2.47
2022-09-16T05:40:29.026Z,2.50
2022-09-16T05:41:31.320Z,2.23
2022-09-16T05:42:33.070Z,2.20
2022-09-16T05:43:35.983Z,2.03
2022-09-16T05:44:37.725Z,2.17
2022-09-16T05:45:39.413Z,1.93
2022-09-16T05:46:41.971Z,2.20
2022-09-16T05:47:51.402Z,2.50
2022-09-16T05:48:53.335Z,2.13
2022-09-16T05:49:55.604Z,2.30
2022-09-16T05:50:59.861Z,1.80
2022-09-16T05:52:02.473Z,2.27
2022-09-16T05:53:04.236Z,2.13
2022-09-16T05:54:06.508Z,2.10
2022-09-16T05:55:08.856Z,2.00
2022-09-16T05:56:17.317Z,2.30
2022-09-16T05:57:19.078Z,1.90
2022-09-16T05:58:20.801Z,2.03
2022-09-16T05:59:24.027Z,2.00
2022-09-16T06:00:25.805Z,1.90
2022-09-16T06:01:31.701Z,1.93
2022-09-16T06:02:33.531Z,2.07
2022-09-16T06:03:37.573Z,2.00
2022-09-16T06:04:39.335Z,1.93
2022-09-16T06:05:45.550Z,1.80
2022-09-16T06:06:47.694Z,2.10
2022-09-16T06:07:49.408Z,2.10
2022-09-16T06:08:52.743Z,2.20
2022-09-16T06:09:54.755Z,2.03
2022-09-16T06:10:57.163Z,2.10
2022-09-16T06:12:02.206Z,1.97
2022-09-16T06:13:04.162Z,2.03
2022-09-16T06:14:06.646Z,2.10
2022-09-16T06:15:10.090Z,2.20
2022-09-16T06:16:13.417Z,2.33
2022-09-16T06:17:15.181Z,2.17
2022-09-16T06:18:18.713Z,2.10
2022-09-16T06:19:20.528Z,1.97
2022-09-16T06:20:22.405Z,2.07
2022-09-16T06:21:24.909Z,1.93
2022-09-16T06:22:30.516Z,2.07
2022-09-16T06:23:33.632Z,1.93
2022-09-16T06:24:35.361Z,1.97
2022-09-16T06:25:37.181Z,2.00
2022-09-16T06:26:41.632Z,2.47
2022-09-16T06:27:43.335Z,2.30
2022-09-16T06:28:46.810Z,2.13
2022-09-16T06:29:48.560Z,2.23
2022-09-16T06:31:00.993Z,2.10
2022-09-16T06:32:02.903Z,2.43
2022-09-16T06:33:05.541Z,2.30
2022-09-16T06:34:12.891Z,2.57
2022-09-16T06:35:14.707Z,2.90
2022-09-16T06:36:23.454Z,2.90
2022-09-16T06:37:26.157Z,3.00
2022-09-16T06:38:27.879Z,2.80
2022-09-16T06:39:29.753Z,2.80
2022-09-16T06:40:31.482Z,2.77
2022-09-16T06:41:35.057Z,3.00
2022-09-16T06:42:37.313Z,3.20
2022-09-16T06:43:39.558Z,2.90
2022-09-16T06:44:41.667Z,2.50
2022-09-16T06:45:43.449Z,2.80
2022-09-16T06:46:45.464Z,2.90
2022-09-16T06:47:47.316Z,2.73
2022-09-16T06:48:52.764Z,2.40
2022-09-16T06:49:54.524Z,2.90
2022-09-16T06:51:07.038Z,2.30
2022-09-16T06:52:11.646Z,2.30
2022-09-16T06:53:13.375Z,2.30
2022-09-16T06:54:15.424Z,2.20
2022-09-16T06:55:17.318Z,2.30
2022-09-16T06:56:21.669Z,2.40
2022-09-16T06:57:23.641Z,2.37
2022-09-16T06:58:25.406Z,2.40
2022-09-16T06:59:27.140Z,2.37
2022-09-16T07:00:28.927Z,2.50
2022-09-16T07:01:32.625Z,2.30
2022-09-16T07:02:36.590Z,2.60
2022-09-16T07:03:44.533Z,2.20
2022-09-16T07:04:46.713Z,2.17
2022-09-16T07:06:02.073Z,2.20
2022-09-16T07:07:09.639Z,2.43
2022-09-16T07:08:12.170Z,2.47
2022-09-16T07:09:14.400Z,2.57
2022-09-16T07:10:16.303Z,2.33
2022-09-16T07:11:21.366Z,2.50
2022-09-16T07:12:23.191Z,2.37
2022-09-16T07:13:25.664Z,2.17
2022-09-16T07:14:29.656Z,2.50
2022-09-16T07:15:31.370Z,2.13
2022-09-16T07:16:33.212Z,2.40
2022-09-16T07:17:34.979Z,2.60
2022-09-16T07:18:38.649Z,2.60
2022-09-16T07:19:42.286Z,1.97
2022-09-16T07:20:44.011Z,2.50
2022-09-16T07:21:46.606Z,2.17
2022-09-16T07:22:50.705Z,2.03
2022-09-16T07:23:58.017Z,2.40
2022-09-16T07:24:59.833Z,2.07
2022-09-16T07:26:26.199Z,2.63
2022-09-16T07:27:29.676Z,2.23
2022-09-16T07:28:32.669Z,2.23
2022-09-16T07:29:34.414Z,2.23
2022-09-16T07:30:36.201Z,2.33
2022-09-16T07:31:38.456Z,2.40
2022-09-16T07:32:40.265Z,2.50
2022-09-16T07:33:46.088Z,3.00
2022-09-16T07:34:47.931Z,3.07
2022-09-16T07:35:49.685Z,3.03
2022-09-16T07:36:51.576Z,2.50
2022-09-16T07:37:53.300Z,2.67
2022-09-16T07:39:00.159Z,2.80
2022-09-16T07:40:02.402Z,2.63
2022-09-16T07:41:11.155Z,2.40
2022-09-16T07:42:12.923Z,2.50
2022-09-16T07:43:14.651Z,2.70
2022-09-16T07:44:19.455Z,3.00
2022-09-16T07:45:21.182Z,2.80
2022-09-16T07:46:22.912Z,2.60
2022-09-16T07:47:24.767Z,2.77
2022-09-16T07:48:34.532Z,3.27
2022-09-16T07:49:36.982Z,2.80
2022-09-16T07:50:38.777Z,2.77
2022-09-16T07:51:40.667Z,2.90
2022-09-16T07:52:42.489Z,2.90
2022-09-16T07:53:45.678Z,2.90
2022-09-16T07:54:50.324Z,2.80
2022-09-16T07:55:52.031Z,3.27
2022-09-16T07:56:53.778Z,2.97
2022-09-16T07:57:55.658Z,3.07
2022-09-16T07:58:57.924Z,3.00
2022-09-16T07:59:59.717Z,3.13
2022-09-16T08:01:04.721Z,2.80
2022-09-16T08:02:07.217Z,2.87
2022-09-16T08:03:09.949Z,2.80
2022-09-16T08:04:12.209Z,2.77
2022-09-16T08:05:14.176Z,2.77
2022-09-16T08:06:23.177Z,2.70
2022-09-16T08:07:25.052Z,2.47
2022-09-16T08:08:26.948Z,3.10
2022-09-16T08:09:48.581Z,3.13
2022-09-16T08:10:58.672Z,2.93
2022-09-16T08:12:04.797Z,3.07
2022-09-16T08:13:08.714Z,3.17
2022-09-16T08:14:10.459Z,3.17
2022-09-16T08:15:12.204Z,2.93
2022-09-16T08:16:20.003Z,3.03
2022-09-16T08:17:21.701Z,3.00
2022-09-16T08:18:23.446Z,4.57
2022-09-16T08:19:25.329Z,4.43
2022-09-16T08:20:28.208Z,3.67
2022-09-16T08:21:30.118Z,3.20
2022-09-16T08:22:31.995Z,2.93
2022-09-16T08:23:35.271Z,2.80
2022-09-16T08:24:37.057Z,2.57
2022-09-16T08:25:38.782Z,3.10
2022-09-16T08:26:40.930Z,2.80
2022-09-16T08:27:42.766Z,2.80
2022-09-16T08:29:07.217Z,2.90
2022-09-16T08:30:10.151Z,2.50
2022-09-16T08:31:13.184Z,2.50
2022-09-16T08:32:15.017Z,2.30
2022-09-16T08:33:20.993Z,2.87
2022-09-16T08:34:22.876Z,2.67
2022-09-16T08:35:25.629Z,2.40
2022-09-16T08:36:27.522Z,2.70
2022-09-16T08:37:29.390Z,2.60
2022-09-16T08:38:33.499Z,2.73
2022-09-16T08:39:35.372Z,2.97
2022-09-16T08:40:37.347Z,2.40
2022-09-16T08:42:13.693Z,2.83
2022-09-16T08:43:45.601Z,2.57
2022-09-16T08:45:23.598Z,2.80
2022-09-16T08:46:50.313Z,2.77
2022-09-16T08:48:03.014Z,2.40
2022-09-16T08:49:22.560Z,2.30
2022-09-16T08:50:33.882Z,2.23
2022-09-16T08:51:35.801Z,2.90
2022-09-16T08:52:40.975Z,3.10
2022-09-16T08:53:59.381Z,3.23
2022-09-16T08:55:07.848Z,2.97
2022-09-16T08:56:19.066Z,2.93
2022-09-16T08:57:29.144Z,2.43
2022-09-16T08:58:40.389Z,2.73
2022-09-16T08:59:50.160Z,2.47
2022-09-16T09:01:02.722Z,2.77
2022-09-16T09:02:35.325Z,2.70
2022-09-16T09:03:41.954Z,2.60
2022-09-16T09:04:44.257Z,2.50
2022-09-16T09:05:57.996Z,2.40
2022-09-16T09:07:23.244Z,2.57
2022-09-16T09:09:30.121Z,3.30
2022-09-16T09:10:48.992Z,2.93
2022-09-16T09:12:13.183Z,3.03
2022-09-16T09:14:01.630Z,3.00
2022-09-16T09:15:43.706Z,4.07
2022-09-16T09:17:10.167Z,3.90
2022-09-16T09:18:29.916Z,3.57
2022-09-16T09:20:01.177Z,3.13
2022-09-16T09:21:34.283Z,2.90
2022-09-16T09:22:46.043Z,2.67
2022-09-16T09:24:06.780Z,2.53
2022-09-16T09:25:39.690Z,2.90
2022-09-16T09:26:58.491Z,2.67
2022-09-16T09:28:14.202Z,2.40
2022-09-16T09:29:48.108Z,2.40
2022-09-16T09:31:50.854Z,3.00
2022-09-16T09:33:04.454Z,2.53
2022-09-16T09:34:43.003Z,2.60
2022-09-16T09:36:22.884Z,4.30
2022-09-16T09:37:57.768Z,4.00
2022-09-16T09:39:34.515Z,3.13
2022-09-16T09:40:39.567Z,2.67
2022-09-16T09:41:50.847Z,2.30
2022-09-16T09:43:09.846Z,2.70
2022-09-16T09:44:20.450Z,2.60
2022-09-16T09:45:36.643Z,2.27
2022-09-16T09:46:46.323Z,2.40
2022-09-16T09:48:10.326Z,2.13
2022-09-16T09:49:31.217Z,2.57
2022-09-16T09:50:46.383Z,2.27
2022-09-16T09:52:08.028Z,2.50
2022-09-16T09:53:29.072Z,2.47
2022-09-16T09:54:34.353Z,2.43
2022-09-16T09:55:36.161Z,2.73
2022-09-16T09:56:45.613Z,2.33
2022-09-16T09:58:05.537Z,2.50
2022-09-16T09:59:33.404Z,2.50
2022-09-16T10:00:35.327Z,2.37
2022-09-16T10:01:37.169Z,2.77
2022-09-16T10:02:49.609Z,2.70
2022-09-16T10:03:55.985Z,2.43
2022-09-16T10:04:57.701Z,2.60
2022-09-16T10:05:59.682Z,2.70
2022-09-16T10:08:29.940Z,2.60
2022-09-16T10:09:33.652Z,2.67
2022-09-16T10:10:50.252Z,2.97
2022-09-16T10:11:55.809Z,2.60
2022-09-16T10:13:12.878Z,2.60
2022-09-16T10:14:36.493Z,2.70
2022-09-16T10:15:39.262Z,2.57
2022-09-16T10:16:52.515Z,2.90
2022-09-16T10:17:58.816Z,2.67
2022-09-16T10:19:26.287Z,2.80
2022-09-16T10:20:36.972Z,3.20
2022-09-16T10:22:30.199Z,2.40
2022-09-16T10:23:33.754Z,2.37
2022-09-16T10:24:42.054Z,2.70
2022-09-16T10:25:44.016Z,2.60
2022-09-16T10:26:45.733Z,2.40
2022-09-16T10:28:04.389Z,2.80
2022-09-16T10:29:19.371Z,2.50
2022-09-16T10:31:33.554Z,2.77
2022-09-16T10:33:04.742Z,2.80
2022-09-16T10:34:28.619Z,2.83
2022-09-16T10:35:35.059Z,2.90
2022-09-16T10:36:36.859Z,2.50
2022-09-16T10:37:47.997Z,2.90
2022-09-16T10:39:24.547Z,2.67
2022-09-16T10:40:27.657Z,2.63
2022-09-16T10:41:40.593Z,2.77
2022-09-16T10:42:48.470Z,3.00
2022-09-16T10:43:56.991Z,2.43
2022-09-16T10:45:16.255Z,2.63
2022-09-16T10:46:19.734Z,2.50
2022-09-16T10:47:27.902Z,2.40
2022-09-16T10:48:34.551Z,1.97
2022-09-16T10:49:45.756Z,2.40
2022-09-16T10:51:02.146Z,2.80
2022-09-16T10:52:29.237Z,2.10
2022-09-16T10:53:44.027Z,2.10
2022-09-16T10:54:47.174Z,2.37
2022-09-16T10:56:00.116Z,1.90
2022-09-16T10:57:02.107Z,2.03
2022-09-16T10:58:30.715Z,2.13
2022-09-16T10:59:32.457Z,2.37
2022-09-16T11:01:08.644Z,2.20
2022-09-16T11:02:54.460Z,2.30
2022-09-16T11:04:33.673Z,2.60
2022-09-16T11:06:09.259Z,2.23
2022-09-16T11:07:31.708Z,2.20
2022-09-16T11:09:25.970Z,2.00
2022-09-16T11:10:59.109Z,2.67
2022-09-16T11:12:25.461Z,2.73
2022-09-16T11:13:41.102Z,2.40
2022-09-16T11:15:16.889Z,2.60
2022-09-16T11:17:05.212Z,2.43
2022-09-16T11:18:18.334Z,2.37
2022-09-16T11:20:06.203Z,2.43
2022-09-16T11:21:43.789Z,2.10
2022-09-16T11:23:45.865Z,2.40
2022-09-16T11:25:32.690Z,2.37
2022-09-16T11:26:57.520Z,2.20
2022-09-16T11:28:36.732Z,2.37
2022-09-16T11:30:09.634Z,2.10
2022-09-16T11:31:42.154Z,2.07
2022-09-16T11:33:00.007Z,2.20
2022-09-16T11:34:08.719Z,2.60
2022-09-16T11:35:40.918Z,1.77
2022-09-16T11:37:06.628Z,1.80
2022-09-16T11:38:43.828Z,1.70
2022-09-16T11:40:09.725Z,2.03
2022-09-16T11:41:41.004Z,1.97
2022-09-16T11:42:58.416Z,1.97
2022-09-16T11:44:31.937Z,1.70
2022-09-16T11:46:03.228Z,1.80
2022-09-16T11:47:41.963Z,1.93
2022-09-16T11:49:14.940Z,1.77
2022-09-16T11:50:22.426Z,1.70
2022-09-16T11:51:56.577Z,1.87
2022-09-16T11:53:41.889Z,1.80
2022-09-16T11:55:32.583Z,1.50
2022-09-16T11:56:48.920Z,1.70
2022-09-16T11:58:05.125Z,1.60
2022-09-16T11:59:33.121Z,1.90
2022-09-16T12:00:38.765Z,1.57
2022-09-16T12:02:01.479Z,1.40
2022-09-16T12:03:24.992Z,1.40
2022-09-16T12:04:41.597Z,1.50
2022-09-16T12:05:54.537Z,1.30
2022-09-16T12:07:03.724Z,1.70
2022-09-16T12:08:23.003Z,1.30
2022-09-16T12:09:40.922Z,1.57
2022-09-16T12:10:46.820Z,1.60
2022-09-16T12:11:58.976Z,1.43
2022-09-16T12:13:16.664Z,1.70
2022-09-16T12:14:33.829Z,1.70
2022-09-16T12:16:09.407Z,1.47
2022-09-16T12:17:14.168Z,1.40
2022-09-16T12:18:42.955Z,1.60
2022-09-16T12:20:36.620Z,1.50
2022-09-16T12:22:08.264Z,1.50
2022-09-16T12:23:28.699Z,1.70
2022-09-16T12:24:51.673Z,1.63
2022-09-16T12:26:21.586Z,1.70
2022-09-16T12:27:53.539Z,1.40
2022-09-16T12:29:13.940Z,1.70
2022-09-16T12:30:23.952Z,1.50
2022-09-16T12:31:51.880Z,1.70
2022-09-16T12:33:22.044Z,1.60
2022-09-16T12:35:06.309Z,1.60
2022-09-16T12:36:23.882Z,1.50
2022-09-16T12:37:47.437Z,1.80
2022-09-16T12:38:49.252Z,1.50
2022-09-16T12:39:52.189Z,1.70
2022-09-16T12:41:12.909Z,1.73
2022-09-16T12:42:51.524Z,1.80
2022-09-16T12:44:23.686Z,1.47
2022-09-16T12:46:03.143Z,1.70
2022-09-16T12:47:23.229Z,1.50
2022-09-16T12:48:56.161Z,1.50
2022-09-16T12:50:27.496Z,1.60
2022-09-16T12:52:14.479Z,1.40
2022-09-16T12:54:11.395Z,1.57
2022-09-16T12:55:28.793Z,1.30
2022-09-16T12:57:05.828Z,1.40
2022-09-16T12:58:44.503Z,1.20
2022-09-16T13:00:03.008Z,1.00
2022-09-16T13:01:25.622Z,1.23
2022-09-16T13:02:37.194Z,1.10
2022-09-16T13:03:45.454Z,1.07
2022-09-16T13:04:56.346Z,1.20
2022-09-16T13:06:04.044Z,1.70
2022-09-16T13:07:07.119Z,0.90
2022-09-16T13:08:31.270Z,1.17
2022-09-16T13:09:39.243Z,1.00
2022-09-16T13:11:19.273Z,1.00
2022-09-16T13:13:50.907Z,0.90
2022-09-16T13:14:59.964Z,1.10
2022-09-16T13:16:06.880Z,1.10
2022-09-16T13:17:12.229Z,0.90
2022-09-16T13:18:16.685Z,0.90
2022-09-16T13:19:31.807Z,1.03
2022-09-16T13:20:41.279Z,1.00
2022-09-16T13:21:47.041Z,0.87
2022-09-16T13:23:24.740Z,0.80
2022-09-16T13:24:50.218Z,0.83
2022-09-16T13:26:07.263Z,1.07
2022-09-16T13:27:29.337Z,0.87
2022-09-16T13:28:44.045Z,1.00
2022-09-16T13:29:45.783Z,0.77
2022-09-16T13:30:47.986Z,1.63
2022-09-16T13:31:50.195Z,1.60
2022-09-16T13:32:51.977Z,1.30
2022-09-16T13:33:59.357Z,1.23
2022-09-16T13:35:36.229Z,1.30
2022-09-16T13:36:37.957Z,1.27
2022-09-16T13:37:39.863Z,1.17
2022-09-16T13:38:51.704Z,1.37
2022-09-16T13:39:53.489Z,1.40
2022-09-16T13:40:56.958Z,1.53
2022-09-16T13:42:20.665Z,1.60
2022-09-16T13:43:48.668Z,1.20
2022-09-16T13:44:50.719Z,1.40
2022-09-16T13:46:04.530Z,1.43
2022-09-16T13:47:12.135Z,1.30
2022-09-16T13:48:20.048Z,1.40
2022-09-16T13:49:27.752Z,1.50
2022-09-16T13:50:29.728Z,1.50
2022-09-16T13:51:39.963Z,1.27
2022-09-16T13:52:43.818Z,1.30
2022-09-16T13:53:50.258Z,1.23
2022-09-16T13:55:11.621Z,1.40
2022-09-16T13:56:13.742Z,1.37
2022-09-16T13:57:49.151Z,1.30
2022-09-16T13:59:10.808Z,1.30
2022-09-16T14:01:04.637Z,1.17
2022-09-16T14:02:42.607Z,1.10
2022-09-16T14:04:13.195Z,1.20
2022-09-16T14:05:47.846Z,1.00
2022-09-16T14:07:17.995Z,0.80
2022-09-16T14:08:57.850Z,0.97
2022-09-16T14:10:09.206Z,1.03
2022-09-16T14:11:26.818Z,1.00
2022-09-16T14:12:45.858Z,1.00
2022-09-16T14:14:05.817Z,1.00
2022-09-16T14:15:10.368Z,0.77
2022-09-16T14:16:25.839Z,0.97
2022-09-16T14:17:39.951Z,1.00
2022-09-16T14:18:53.953Z,1.03
2022-09-16T14:20:00.781Z,1.20
2022-09-16T14:21:24.586Z,1.07
2022-09-16T14:22:27.962Z,0.90
2022-09-16T14:23:33.374Z,1.20
2022-09-16T14:24:39.546Z,1.00
2022-09-16T14:25:41.310Z,0.97
2022-09-16T14:26:57.286Z,0.97
2022-09-16T14:28:28.458Z,0.80
2022-09-16T14:29:30.881Z,0.70
2022-09-16T14:30:32.617Z,0.80
2022-09-16T14:31:34.686Z,0.90
2022-09-16T14:32:38.267Z,1.10
2022-09-16T14:33:49.297Z,1.13
2022-09-16T14:34:56.642Z,0.90
2022-09-16T14:36:01.558Z,0.87
2022-09-16T14:37:05.453Z,1.00
2022-09-16T14:38:18.102Z,1.00
2022-09-16T14:39:27.951Z,1.10
2022-09-16T14:40:29.982Z,1.20
2022-09-16T14:41:48.748Z,1.33
2022-09-16T14:42:54.251Z,1.00
2022-09-16T14:44:19.959Z,1.23
2022-09-16T14:45:22.384Z,1.00
2022-09-16T14:46:24.356Z,1.03
2022-09-16T14:47:50.508Z,1.07
2022-09-16T14:48:53.262Z,0.87
2022-09-16T14:50:08.269Z,0.90
2022-09-16T14:51:23.421Z,1.10
2022-09-16T14:52:33.770Z,0.90
2022-09-16T14:53:38.648Z,1.20
2022-09-16T14:54:44.796Z,1.27
2022-09-16T14:55:49.859Z,0.93
2022-09-16T14:57:04.060Z,0.90
2022-09-16T14:58:08.428Z,0.90
2022-09-16T14:59:15.190Z,1.07
2022-09-16T15:00:19.324Z,1.20
2022-09-16T15:01:28.283Z,1.10
2022-09-16T15:02:56.438Z,1.10
2022-09-16T15:04:14.561Z,0.90
2022-09-16T15:05:35.000Z,1.30
2022-09-16T15:06:52.685Z,1.43
2022-09-16T15:08:20.799Z,0.90
2022-09-16T15:09:49.284Z,1.07
2022-09-16T15:10:58.725Z,1.20
2022-09-16T15:12:01.983Z,1.30
2022-09-16T15:13:12.566Z,1.47
2022-09-16T15:14:14.769Z,1.30
2022-09-16T15:15:25.794Z,0.97
2022-09-16T15:16:28.461Z,1.40
2022-09-16T15:17:30.361Z,0.90
2022-09-16T15:18:37.338Z,1.10
2022-09-16T15:19:41.742Z,1.20
2022-09-16T15:21:10.452Z,1.17
2022-09-16T15:22:15.493Z,1.17
2022-09-16T15:23:25.006Z,1.23
2022-09-16T15:24:33.253Z,1.37
2022-09-16T15:25:38.428Z,1.10
2022-09-16T15:26:43.920Z,1.23
2022-09-16T15:27:45.763Z,1.37
2022-09-16T15:29:03.438Z,1.00
2022-09-16T15:30:07.513Z,1.40
2022-09-16T15:31:12.698Z,1.30
2022-09-16T15:32:23.165Z,1.13
2022-09-16T15:33:40.870Z,1.27
2022-09-16T15:34:44.025Z,1.17
2022-09-16T15:35:50.946Z,1.10
2022-09-16T15:36:56.261Z,1.33
2022-09-16T15:37:58.011Z,1.00
2022-09-16T15:39:00.060Z,0.90
2022-09-16T15:40:27.894Z,1.47
2022-09-16T15:41:31.158Z,0.90
2022-09-16T15:42:32.944Z,1.30
2022-09-16T15:43:42.594Z,1.30
2022-09-16T15:44:59.134Z,1.10
2022-09-16T15:46:27.816Z,1.13
2022-09-16T15:47:52.285Z,1.00
2022-09-16T15:49:01.795Z,1.00
2022-09-16T15:50:12.214Z,1.23
2022-09-16T15:51:49.481Z,1.00
2022-09-16T15:53:42.401Z,1.10
2022-09-16T15:54:53.740Z,0.90
2022-09-16T15:56:25.266Z,1.20
2022-09-16T15:57:38.737Z,0.87